createdAt,value
2023-05-18T00:00:47.590Z,99.32
2023-05-18T00:10:47.830Z,99.73
2023-05-18T00:20:48.008Z,99.68
2023-05-18T00:30:48.335Z,99.99
2023-05-18T00:40:48.498Z,99.99
2023-05-18T00:50:48.622Z,99.99
2023-05-18T01:00:48.781Z,99.99
2023-05-18T01:10:48.899Z,99.99
2023-05-18T01:20:49.064Z,99.99
2023-05-18T01:30:49.425Z,99.99
2023-05-18T01:40:49.441Z,99.99
2023-05-18T01:50:49.669Z,99.99
2023-05-18T02:00:49.778Z,99.99
2023-05-18T02:10:49.896Z,99.99
2023-05-18T02:20:50.072Z,99.99
2023-05-18T02:30:50.336Z,99.99
2023-05-18T02:40:50.521Z,99.99
2023-05-18T02:50:50.755Z,99.99
2023-05-18T03:00:50.952Z,99.99
2023-05-18T03:10:51.177Z,99.99
2023-05-18T03:20:51.347Z,99.99
2023-05-18T03:30:51.608Z,99.99
2023-05-18T03:40:51.793Z,99.99
2023-05-18T03:50:52.024Z,99.99
2023-05-18T04:00:52.210Z,99.99
2023-05-18T04:10:52.467Z,99.99
2023-05-18T04:20:52.590Z,99.99
2023-05-18T04:30:52.928Z,99.99
2023-05-18T04:40:52.877Z,99.99
2023-05-18T04:50:53.132Z,99.99
2023-05-18T05:00:53.470Z,99.99
2023-05-18T05:10:55.579Z,99.99
2023-05-18T05:20:53.560Z,99.99
2023-05-18T05:30:53.684Z,99.99
2023-05-18T05:40:53.896Z,97.29
2023-05-18T05:50:54.217Z,94.15
2023-05-18T06:00:55.379Z,93.38
2023-05-18T06:10:54.483Z,90.72
2023-05-18T06:20:54.708Z,90.33
2023-05-18T06:30:54.937Z,88.64
2023-05-18T06:40:55.249Z,88.00
2023-05-18T06:50:55.265Z,86.48
2023-05-18T07:00:55.347Z,85.13
2023-05-18T07:10:55.491Z,82.24
2023-05-18T07:20:55.643Z,80.49
2023-05-18T07:30:55.885Z,78.38
2023-05-18T07:40:56.053Z,77.52
2023-05-18T07:50:56.432Z,73.77
2023-05-18T08:00:56.564Z,68.92
2023-05-18T08:10:56.502Z,69.70
2023-05-18T08:20:56.851Z,68.89
2023-05-18T08:30:56.881Z,64.87
2023-05-18T08:40:56.919Z,60.42
2023-05-18T08:50:57.111Z,57.87
2023-05-18T09:00:57.286Z,57.07
2023-05-18T09:10:57.490Z,54.46
2023-05-18T09:20:57.665Z,53.52
2023-05-18T09:30:57.920Z,51.03
2023-05-18T09:40:58.075Z,49.97
2023-05-18T09:50:58.406Z,50.88
2023-05-18T10:00:58.468Z,49.30
2023-05-18T10:10:58.660Z,48.13
2023-05-18T10:21:00.077Z,51.01
2023-05-18T10:30:59.275Z,49.48
2023-05-18T10:40:59.219Z,46.73
2023-05-18T10:50:59.498Z,46.81
2023-05-18T11:00:59.718Z,44.72
2023-05-18T11:10:59.682Z,43.84
2023-05-18T11:20:59.836Z,44.66
2023-05-18T11:31:00.065Z,44.24
2023-05-18T11:41:00.519Z,49.55
2023-05-18T11:51:00.382Z,46.07
2023-05-18T12:01:00.544Z,45.77
2023-05-18T12:11:00.815Z,48.88
2023-05-18T12:21:01.019Z,50.40
2023-05-18T12:31:01.040Z,49.08
2023-05-18T12:41:01.134Z,48.60
2023-05-18T12:51:01.561Z,50.08
2023-05-18T13:01:01.477Z,41.77
2023-05-18T13:11:12.529Z,45.59
2023-05-18T13:21:02.794Z,44.18
2023-05-18T13:31:02.001Z,46.19
2023-05-18T13:41:02.946Z,49.22
2023-05-18T13:51:02.400Z,49.85
2023-05-18T14:01:02.538Z,49.32
2023-05-18T14:11:02.620Z,47.42
2023-05-18T14:21:02.776Z,48.41
2023-05-18T14:31:03.076Z,50.13
2023-05-18T14:41:03.160Z,53.34
2023-05-18T14:51:03.378Z,53.78
2023-05-18T15:01:03.700Z,55.62
2023-05-18T15:11:03.957Z,57.03
2023-05-18T15:21:03.847Z,53.93
2023-05-18T15:31:04.182Z,55.85
2023-05-18T15:41:04.430Z,55.40
2023-05-18T15:51:04.311Z,55.36
2023-05-18T16:01:04.531Z,55.69
2023-05-18T16:11:04.676Z,56.84
2023-05-18T16:21:04.732Z,58.86
2023-05-18T16:31:04.948Z,58.56
2023-05-18T16:41:05.007Z,55.69
2023-05-18T16:51:05.218Z,57.24
2023-05-18T17:01:15.837Z,55.98
2023-05-18T17:11:06.661Z,57.40
2023-05-18T17:21:05.689Z,58.20
2023-05-18T17:31:05.955Z,58.94
2023-05-18T17:41:06.002Z,61.78
2023-05-18T17:51:06.226Z,61.51
2023-05-18T18:01:06.437Z,62.14
2023-05-18T18:11:09.079Z,63.21
2023-05-18T18:21:06.838Z,63.01
2023-05-18T18:31:07.080Z,61.29
2023-05-18T18:41:07.124Z,61.08
2023-05-18T18:51:07.638Z,63.85
2023-05-18T19:01:07.551Z,64.70
2023-05-18T19:11:07.876Z,64.12
2023-05-18T19:21:07.780Z,64.52
2023-05-18T19:31:07.955Z,65.97
2023-05-18T19:41:08.028Z,65.36
2023-05-18T19:51:08.386Z,65.06
2023-05-18T20:01:08.462Z,69.13
2023-05-18T20:11:08.613Z,66.61
2023-05-18T20:21:08.774Z,67.63
2023-05-18T20:31:09.186Z,67.33
2023-05-18T20:41:09.137Z,69.46
2023-05-18T20:51:09.344Z,69.40
2023-05-18T21:01:09.520Z,71.16
2023-05-18T21:11:09.749Z,73.13
2023-05-18T21:21:09.905Z,73.54
2023-05-18T21:31:10.149Z,74.38
2023-05-18T21:41:10.196Z,76.46
2023-05-18T21:51:10.396Z,78.50
2023-05-18T22:01:10.612Z,79.62
2023-05-18T22:11:10.729Z,78.53
2023-05-18T22:21:10.905Z,78.02
2023-05-18T22:31:11.082Z,79.96
2023-05-18T22:41:11.493Z,79.75
2023-05-18T22:51:11.493Z,79.80
2023-05-18T23:01:11.656Z,81.53
2023-05-18T23:11:11.842Z,80.61
2023-05-18T23:21:11.977Z,81.16
2023-05-18T23:31:12.175Z,79.93
2023-05-18T23:41:12.354Z,81.05
2023-05-18T23:51:12.535Z,81.23
